Clipper Grand — C6YJ5 — position and weather

sailwx.info

Track history (hours):
 
Tides and Currents Weather Stations Pressure Air Temp Water Temp Dewpoint Dewpoint Depression Visibility Wind Speed Wind Dir Waves Ship Positions

Clipper Grand

Last reported at 2014-Jul-15 02:33 UTC. Time now 2014-Jul-29 02:37 UTC.
Position N 35°03' E 129°12'.
Warning: this ship's position is 14 days out of date.

Length 120 m; draft 7.1 m.

Type: Cargo ship. MMSI: 311033700.

Date/timePositionNaut miles runAvg speedWind from/ knotsBaromVisibWave heightAir tempDewpointWater temp
2014-Jul-15 02:33N 35°03' E 129°12'40711.3
2014-Jul-13 14:24N 31°06' E 122°38'7 7.9
2014-Jul-13 13:33N 31°05' E 122°30'1010.3
2014-Jul-13 12:32N 31°06' E 122°18'1813.7
2014-Jul-13 11:15N 31°15' E 122°00'1014.9
2014-Jul-13 10:33N 31°17' E 121°48'1312.8
2014-Jul-13 09:33N 31°23' E 121°35'8 8.4
2014-Jul-13 08:33N 31°28' E 121°27'1010.0
2014-Jul-13 07:33N 31°35' E 121°18'1312.8
2014-Jul-13 06:33N 31°43' E 121°07'1211.7
2014-Jul-13 05:33N 31°51' E 120°56'3 2.9
2014-Jul-13 04:29N 31°54' E 120°55'0 0.0
2014-Jul-13 03:23N 31°54' E 120°55'0 0.0
2014-Jul-13 02:17N 31°54' E 120°55'0 0.0
2014-Jul-13 01:26N 31°54' E 120°55'0 0.0
2014-Jul-13 00:32N 31°54' E 120°55'0 0.0
2014-Jul-12 23:29N 31°54' E 120°55'0 0.0
2014-Jul-12 21:26N 31°54' E 120°55'0 0.0
2014-Jul-12 20:32N 31°54' E 120°55'0 0.0
2014-Jul-12 19:29N 31°54' E 120°55'0 0.0
2014-Jul-12 17:26N 31°54' E 120°55'0 0.0
2014-Jul-12 16:32N 31°54' E 120°55'0 0.0
2014-Jul-12 15:29N 31°54' E 120°55'0 0.0
2014-Jul-12 14:11N 31°54' E 120°55'0 0.0
2014-Jul-12 13:32N 31°54' E 120°55'0 0.0
2014-Jul-12 12:29N 31°54' E 120°55'0 0.0
2014-Jul-12 10:14N 31°54' E 120°55'0 0.0
2014-Jul-12 09:23N 31°54' E 120°55'0 0.0
2014-Jul-12 08:29N 31°54' E 120°55'2 1.9
2014-Jul-12 07:33N 31°52' E 120°56'7 7.1
2014-Jul-12 06:34N 31°47' E 121°01'9 8.7
2014-Jul-12 05:33N 31°42' E 121°10'1212.1
2014-Jul-12 04:33N 31°33' E 121°20'1110.9
2014-Jul-12 03:33N 31°26' E 121°29'5 5.2
2014-Jul-12 02:33N 31°21' E 121°31'5 5.3
2014-Jul-12 01:33N 31°16' E 121°34'5 4.9
2014-Jul-12 00:33N 31°12' E 121°30'5 5.5
2014-Jul-11 23:33N 31°07' E 121°28'1 1.2
2014-Jul-11 22:20N 31°06' E 121°28'0 0.0
2014-Jul-11 21:29N 31°06' E 121°28'0 0.0
2014-Jul-11 20:33N 31°06' E 121°28'0 0.0
2014-Jul-11 19:32N 31°06' E 121°28'0 0.0
2014-Jul-11 18:33N 31°06' E 121°28'0 0.0
2014-Jul-11 17:33N 31°06' E 121°28'0 0.0
2014-Jul-11 16:31N 31°06' E 121°28'0 0.0
2014-Jul-11 15:33N 31°06' E 121°28'0 0.0
2014-Jul-11 14:33N 31°06' E 121°28'0 0.0
2014-Jul-11 13:33N 31°06' E 121°28'0 0.0
2014-Jul-11 12:33N 31°06' E 121°28'0 0.0
2014-Jul-11 11:33N 31°06' E 121°28'0 0.0
2014-Jul-11 09:33N 31°06' E 121°28'0 0.0
2014-Jul-11 08:31N 31°06' E 121°28'0 0.0
2014-Jul-11 07:28N 31°06' E 121°28'2 2.2
2014-Jul-11 06:33N 31°08' E 121°28'5 5.3
2014-Jul-11 05:33N 31°13' E 121°30'5 5.1
2014-Jul-11 04:33N 31°17' E 121°34'6 6.2
2014-Jul-11 03:33N 31°22' E 121°30'5 4.8
2014-Jul-11 02:33N 31°23' E 121°36'7 7.4
2014-Jul-11 01:33N 31°19' E 121°43'1812.3
2014-Jul-11 00:07N 31°07' E 121°57'711.8
2014-Jul-10 23:33N 31°04' E 122°05'1110.0
2014-Jul-10 22:29N 31°03' E 122°17'25 2.0
2014-Jul-10 10:16N 31°10' E 122°44'10712.1
2014-Jul-10 01:27N 32°56' E 122°53'  
2014-Jul-07 19:27N 38°06' E 122°38'1713.9
2014-Jul-07 18:13N 38°18' E 122°23'1314.0
2014-Jul-07 17:15N 38°27' E 122°10'1014.0
2014-Jul-07 16:33N 38°34' E 122°01'1413.8
2014-Jul-07 15:33N 38°43' E 121°49'1211.7
2014-Jul-07 14:30N 38°56' E 121°46'5 0.8
2014-Jul-07 08:30N 39°01' E 121°45'0 0.0
2014-Jul-07 07:18N 39°01' E 121°45'0 0.0
2014-Jul-06 06:30N 39°01' E 121°45'2 0.1
2014-Jul-05 09:28N 38°59' E 121°47'8 8.8
2014-Jul-05 08:33N 38°51' E 121°48'  
Track history (hours):
 
Tides and Currents Weather Stations Pressure Air Temp Water Temp Dewpoint Dewpoint Depression Visibility Wind Speed Wind Dir Waves Ship Positions

Clipper Grand

Last reported at 2014-Jul-15 02:33 UTC. Time now 2014-Jul-29 02:37 UTC.
Position N 35°03' E 129°12'.
Warning: this ship's position is 14 days out of date.

Length 120 m; draft 7.1 m.

Type: Cargo ship. MMSI: 311033700.

Date/timePositionNaut miles runAvg speedWind from/ knotsBaromVisibWave heightAir tempDewpointWater temp
2014-Jul-15 02:33N 35°03' E 129°12'40711.3
2014-Jul-13 14:24N 31°06' E 122°38'7 7.9
2014-Jul-13 13:33N 31°05' E 122°30'1010.3
2014-Jul-13 12:32N 31°06' E 122°18'1813.7
2014-Jul-13 11:15N 31°15' E 122°00'1014.9
2014-Jul-13 10:33N 31°17' E 121°48'1312.8
2014-Jul-13 09:33N 31°23' E 121°35'8 8.4
2014-Jul-13 08:33N 31°28' E 121°27'1010.0
2014-Jul-13 07:33N 31°35' E 121°18'1312.8
2014-Jul-13 06:33N 31°43' E 121°07'1211.7
2014-Jul-13 05:33N 31°51' E 120°56'3 2.9
2014-Jul-13 04:29N 31°54' E 120°55'0 0.0
2014-Jul-13 03:23N 31°54' E 120°55'0 0.0
2014-Jul-13 02:17N 31°54' E 120°55'0 0.0
2014-Jul-13 01:26N 31°54' E 120°55'0 0.0
2014-Jul-13 00:32N 31°54' E 120°55'0 0.0
2014-Jul-12 23:29N 31°54' E 120°55'0 0.0
2014-Jul-12 21:26N 31°54' E 120°55'0 0.0
2014-Jul-12 20:32N 31°54' E 120°55'0 0.0
2014-Jul-12 19:29N 31°54' E 120°55'0 0.0
2014-Jul-12 17:26N 31°54' E 120°55'0 0.0
2014-Jul-12 16:32N 31°54' E 120°55'0 0.0
2014-Jul-12 15:29N 31°54' E 120°55'0 0.0
2014-Jul-12 14:11N 31°54' E 120°55'0 0.0
2014-Jul-12 13:32N 31°54' E 120°55'0 0.0
2014-Jul-12 12:29N 31°54' E 120°55'0 0.0
2014-Jul-12 10:14N 31°54' E 120°55'0 0.0
2014-Jul-12 09:23N 31°54' E 120°55'0 0.0
2014-Jul-12 08:29N 31°54' E 120°55'2 1.9
2014-Jul-12 07:33N 31°52' E 120°56'7 7.1
2014-Jul-12 06:34N 31°47' E 121°01'9 8.7
2014-Jul-12 05:33N 31°42' E 121°10'1212.1
2014-Jul-12 04:33N 31°33' E 121°20'1110.9
2014-Jul-12 03:33N 31°26' E 121°29'5 5.2
2014-Jul-12 02:33N 31°21' E 121°31'5 5.3
2014-Jul-12 01:33N 31°16' E 121°34'5 4.9
2014-Jul-12 00:33N 31°12' E 121°30'5 5.5
2014-Jul-11 23:33N 31°07' E 121°28'1 1.2
2014-Jul-11 22:20N 31°06' E 121°28'0 0.0
2014-Jul-11 21:29N 31°06' E 121°28'0 0.0
2014-Jul-11 20:33N 31°06' E 121°28'0 0.0
2014-Jul-11 19:32N 31°06' E 121°28'0 0.0
2014-Jul-11 18:33N 31°06' E 121°28'0 0.0
2014-Jul-11 17:33N 31°06' E 121°28'0 0.0
2014-Jul-11 16:31N 31°06' E 121°28'0 0.0
2014-Jul-11 15:33N 31°06' E 121°28'0 0.0
2014-Jul-11 14:33N 31°06' E 121°28'0 0.0
2014-Jul-11 13:33N 31°06' E 121°28'0 0.0
2014-Jul-11 12:33N 31°06' E 121°28'0 0.0
2014-Jul-11 11:33N 31°06' E 121°28'0 0.0
2014-Jul-11 09:33N 31°06' E 121°28'0 0.0
2014-Jul-11 08:31N 31°06' E 121°28'0 0.0
2014-Jul-11 07:28N 31°06' E 121°28'2 2.2
2014-Jul-11 06:33N 31°08' E 121°28'5 5.3
2014-Jul-11 05:33N 31°13' E 121°30'5 5.1
2014-Jul-11 04:33N 31°17' E 121°34'6 6.2
2014-Jul-11 03:33N 31°22' E 121°30'5 4.8
2014-Jul-11 02:33N 31°23' E 121°36'7 7.4
2014-Jul-11 01:33N 31°19' E 121°43'1812.3
2014-Jul-11 00:07N 31°07' E 121°57'711.8
2014-Jul-10 23:33N 31°04' E 122°05'1110.0
2014-Jul-10 22:29N 31°03' E 122°17'25 2.0
2014-Jul-10 10:16N 31°10' E 122°44'10712.1
2014-Jul-10 01:27N 32°56' E 122°53'  
2014-Jul-07 19:27N 38°06' E 122°38'1713.9
2014-Jul-07 18:13N 38°18' E 122°23'1314.0
2014-Jul-07 17:15N 38°27' E 122°10'1014.0
2014-Jul-07 16:33N 38°34' E 122°01'1413.8
2014-Jul-07 15:33N 38°43' E 121°49'1211.7
2014-Jul-07 14:30N 38°56' E 121°46'5 0.8
2014-Jul-07 08:30N 39°01' E 121°45'0 0.0
2014-Jul-07 07:18N 39°01' E 121°45'0 0.0
2014-Jul-06 06:30N 39°01' E 121°45'2 0.1
2014-Jul-05 09:28N 38°59' E 121°47'8 8.8
2014-Jul-05 08:33N 38°51' E 121°48'  

Dump ship's entire track history